Stations météo

Publicité
Mont Aigoual, France (7560): Température de l'air & dewpoint: 21.05.2019 05:00:00 - 27.05.2019 05:00:00 (CEST)Mont Aigoual, France (7560): Vitesse du vent & gusts: 21.05.2019 05:00:00 - 27.05.2019 05:00:00 (CEST)Mont Aigoual, France (7560): Direction du vent: 21.05.2019 05:00:00 - 27.05.2019 05:00:00 (CEST)Mont Aigoual, France (7560): visibility: 21.05.2019 05:00:00 - 27.05.2019 05:00:00 (CEST)Mont Aigoual, France (7560): Quantités de précipitations: 21.05.2019 05:00:00 - 27.05.2019 05:00:00 (CEST)
Date & Time tt [°C] td [°C] ff [km/h] ff [knt] fx [km/h] fx [knt] dd vv [km] rr [mm]
27.05.2019 05:00:00 - - - - - - - - -
27.05.2019 04:00:00 6,4 6,4 61 33 85 46 N 0,1 0,0
27.05.2019 03:00:00 6,3 6,3 69 37 96 52 NNW 0,1 0,0
27.05.2019 02:00:00 6,6 6,6 63 34 96 52 NNW 0,1 0,0
27.05.2019 01:00:00 6,7 6,7 61 33 88 48 NNW 0,1 0,0
27.05.2019 00:00:00 6,9 6,9 58 32 86 47 NNW 0,2 0,0
26.05.2019 23:00:00 7,1 7,1 50 27 85 46 NNW 0,2 0,0
26.05.2019 22:00:00 7,7 7,4 51 28 77 42 NNW 3,4 0,0
26.05.2019 21:00:00 8,6 7,1 50 27 68 37 NNW 20 0,0
26.05.2019 20:00:00 9,7 8,0 33 18 70 38 NNW 20 0,0
26.05.2019 19:00:00 10,6 5,8 38 20 58 32 N 20 0,0
26.05.2019 18:00:00 11,7 4,7 35 19 67 36 N 20 0,0
26.05.2019 17:00:00 10,7 4,2 37 20 61 33 N 20 0,0
26.05.2019 16:00:00 11,6 4,3 37 20 58 31 N 20 0,0
26.05.2019 15:00:00 10,7 4,2 37 20 59 32 N 20 0,0
26.05.2019 14:00:00 10,7 3,7 31 17 67 36 N 20 0,0
26.05.2019 13:00:00 10,8 5,3 32 18 68 37 N 20 0,0
26.05.2019 12:00:00 9,5 4,1 54 29 87 47 N 20 0,0
26.05.2019 11:00:00 8,7 5,3 35 19 70 38 N 20 0,0
26.05.2019 10:00:00 7,4 5,7 52 28 85 46 N 20 0,0
26.05.2019 09:00:00 5,9 5,9 59 32 95 51 N 0,9 0,0
26.05.2019 08:00:00 5,5 5,5 42 23 70 38 N 0,2 0,0
26.05.2019 07:00:00 5,4 5,3 49 27 75 40 N 0,3 0,0
26.05.2019 06:00:00 5,6 5,2 47 26 84 45 N 17 0,0
26.05.2019 05:00:00 5,5 5,5 61 33 87 47 N 0,7 0,0
26.05.2019 04:00:00 5,7 5,7 56 30 80 43 NNW 0,3 0,0
26.05.2019 03:00:00 6,2 6,2 53 28 83 45 N 0,6 0,0
26.05.2019 02:00:00 6,4 6,4 47 26 74 40 N 1,3 0,0
26.05.2019 01:00:00 6,6 6,6 54 29 73 40 N 0,1 0,0
26.05.2019 00:00:00 6,6 6,6 55 30 77 42 NNW 0,1 0,0
25.05.2019 23:00:00 6,6 6,6 55 30 77 41 NNW 0,1 0,0
25.05.2019 22:00:00 6,8 6,8 55 30 80 43 NNW 0,5 0,0
25.05.2019 21:00:00 7,5 7,5 61 33 83 45 NNW 0,2 0,0
25.05.2019 20:00:00 7,6 7,3 61 33 77 42 NNW 13 1,8
25.05.2019 19:00:00 7,8 7,0 56 30 84 45 N 3,6 0,0
25.05.2019 18:00:00 9,5 8,3 44 24 71 39 NNW 20 0,0
25.05.2019 17:00:00 10,5 8,4 45 24 72 39 NW 20 0,0
25.05.2019 16:00:00 10,2 8,6 30 16 48 26 NNW 16 0,2
25.05.2019 15:00:00 10,7 8,5 28 15 49 27 N 20 0,0
25.05.2019 14:00:00 10,4 7,8 34 19 44 24 NNW 20 0,0
25.05.2019 13:00:00 10,9 7,9 29 16 42 23 NNW 19 0,0
25.05.2019 12:00:00 9,0 7,6 22 12 38 20 NNW 17 0,0
25.05.2019 11:00:00 9,3 7,4 19 10 31 17 N 20 0,0
25.05.2019 10:00:00 8,2 6,7 24 13 35 19 NNW 20 0,0
25.05.2019 09:00:00 7,5 5,8 29 16 44 24 N 20 0,0
25.05.2019 08:00:00 6,6 6,3 26 14 35 19 N 0,9 0,0
25.05.2019 07:00:00 6,7 6,0 25 13 37 20 N 6 0,0
25.05.2019 06:00:00 7,4 5,5 29 15 35 19 N 20 0,0
25.05.2019 05:00:00 7,1 5,9 27 15 37 20 N 20 0,0
25.05.2019 04:00:00 6,8 6,4 30 16 39 21 N 17 0,0
25.05.2019 03:00:00 6,6 6,6 22 12 44 24 N 3,0 0,0
25.05.2019 02:00:00 6,7 6,7 32 17 45 24 N 1,1 1,0
25.05.2019 01:00:00 6,6 6,6 36 19 44 24 N 0,3 1,8
25.05.2019 00:00:00 6,8 6,8 21 11 31 17 N 0,2 2,8
24.05.2019 23:00:00 7,1 7,1 28 15 34 18 N 0,3 1,4
24.05.2019 22:00:00 7,0 6,9 24 13 36 19 NNW 0,1 0,0
24.05.2019 21:00:00 7,3 6,9 22 12 32 18 NNW 1,1 0,0
24.05.2019 20:00:00 8,1 6,4 21 11 31 17 NNW 20 0,0
24.05.2019 19:00:00 8,8 6,1 18 10 30 16 NNW 20 0,0
24.05.2019 18:00:00 9,7 6,6 18 10 29 15 N 20 0,0
24.05.2019 17:00:00 8,6 7,1 18 10 31 17 NW 20 0,0
24.05.2019 16:00:00 10,9 7,0 3 1 16 9 E 20 0,0
24.05.2019 15:00:00 11,3 7,2 9 5 23 12 S 20 0,0
24.05.2019 14:00:00 11,2 7,3 7 4 17 9 SSW 20 0,0
24.05.2019 13:00:00 11,4 6,5 8 5 22 12 S 20 0,0
24.05.2019 12:00:00 11,1 6,4 10 6 17 9 S 20 0,0
24.05.2019 11:00:00 10,9 6,0 2 1 19 11 ENE 20 0,0
24.05.2019 10:00:00 10,9 4,1 11 6 22 12 NNE 20 0,0
24.05.2019 09:00:00 10,7 4,8 20 11 27 15 N 20 0,0
24.05.2019 08:00:00 9,3 4,7 19 10 29 15 N 20 0,0
24.05.2019 07:00:00 8,3 4,9 20 11 29 16 NW 20 0,0
24.05.2019 06:00:00 8,1 5,0 27 15 31 17 NW 20 0,0
24.05.2019 05:00:00 9,4 4,0 23 12 32 18 NNW 20 0,0
24.05.2019 04:00:00 9,1 3,9 29 16 36 20 NNW 20 0,0
24.05.2019 03:00:00 9,4 4,4 30 16 41 22 NNW 20 0,0
24.05.2019 02:00:00 9,6 5,0 32 17 47 26 NNW 20 0,0
24.05.2019 01:00:00 9,9 4,9 39 21 50 27 NNW 20 0,0
24.05.2019 00:00:00 9,7 4,1 39 21 51 28 NNW 20 0,0
23.05.2019 23:00:00 9,8 4,8 36 20 48 26 NW 20 0,0
23.05.2019 22:00:00 10,0 3,9 34 19 46 25 NW 20 0,0
23.05.2019 21:00:00 10,7 3,7 34 18 47 26 NW 20 0,0
23.05.2019 20:00:00 13,2 4,6 27 15 39 21 NW 20 0,0
23.05.2019 19:00:00 14,2 5,5 22 12 36 19 WNW 20 0,0
23.05.2019 18:00:00 15,5 4,8 15 8 48 26 W 20 0,0
23.05.2019 17:00:00 16,0 6,1 10 5 29 16 SW 20 0,0
23.05.2019 16:00:00 15,9 6,3 11 6 27 15 S 20 0,0
23.05.2019 15:00:00 15,3 3,7 7 4 29 15 S 20 0,0
23.05.2019 14:00:00 14,1 2,0 12 6 29 16 S 19 0,0
23.05.2019 13:00:00 12,9 1,2 15 8 32 18 WNW 20 0,0
23.05.2019 12:00:00 11,7 0,1 16 9 31 17 NW 20 0,0
23.05.2019 11:00:00 10,5 0,8 18 10 35 19 NW 20 0,0
23.05.2019 10:00:00 10,2 0,5 17 9 36 19 NW 20 0,0
23.05.2019 09:00:00 9,4 0,5 19 10 39 21 N 20 0,0
23.05.2019 08:00:00 8,4 1,1 26 14 41 22 N 20 0,0
23.05.2019 07:00:00 7,4 1,2 29 16 48 26 NNW 20 0,0
23.05.2019 06:00:00 7,2 1,3 37 20 47 25 NNW 20 0,0
23.05.2019 05:00:00 7,1 1,0 37 20 49 26 NNW 20 0,0
23.05.2019 04:00:00 6,5 1,0 36 19 48 26 N 20 0,0
23.05.2019 03:00:00 6,9 1,0 34 18 47 25 N 20 0,0
23.05.2019 02:00:00 6,8 1,7 33 18 41 22 N 20 0,0
23.05.2019 01:00:00 7,1 2,0 31 17 37 20 N 20 0,0
23.05.2019 00:00:00 7,7 2,6 32 17 40 22 N 20 0,0
22.05.2019 23:00:00 7,9 3,4 34 18 42 23 N 20 0,0
22.05.2019 22:00:00 8,8 4,2 35 19 46 25 N 20 0,0
22.05.2019 21:00:00 9,8 4,0 31 17 39 21 N 20 0,0
22.05.2019 20:00:00 11,1 3,6 29 15 37 20 N 20 0,0
22.05.2019 19:00:00 12,3 3,2 23 12 37 20 N 20 0,0
22.05.2019 18:00:00 12,1 3,3 22 12 33 18 N 20 0,0
22.05.2019 17:00:00 13,0 2,2 16 9 38 21 NNE 20 0,0
22.05.2019 16:00:00 12,7 2,5 20 11 38 21 N 20 0,0
22.05.2019 15:00:00 12,5 2,1 23 13 41 22 N 20 0,0
22.05.2019 14:00:00 11,8 2,5 16 9 37 20 N 20 0,0
22.05.2019 13:00:00 10,6 2,7 22 12 34 18 NNW 20 0,0
22.05.2019 12:00:00 10,0 3,3 21 11 46 25 N 20 0,0
22.05.2019 11:00:00 8,8 4,6 31 17 50 27 N 20 0,0
22.05.2019 10:00:00 7,5 4,1 34 18 50 27 N 20 0,0
22.05.2019 09:00:00 6,5 4,2 36 19 55 30 N 20 0,0
22.05.2019 08:00:00 5,2 3,5 39 21 64 35 N 20 0,0
22.05.2019 07:00:00 4,3 3,6 45 24 67 36 N 15 0,0
22.05.2019 06:00:00 3,9 3,6 50 27 69 37 N 8 0,0
22.05.2019 05:00:00 4,0 3,6 43 23 63 34 N 7 0,0
22.05.2019 04:00:00 4,2 3,6 41 22 60 33 N 15 0,0
22.05.2019 03:00:00 4,6 4,0 42 23 71 39 N 14 0,0
22.05.2019 02:00:00 4,9 4,2 48 26 73 40 N 14 0,0
22.05.2019 01:00:00 5,2 4,0 55 30 75 40 N 20 0,0
22.05.2019 00:00:00 5,6 4,9 58 31 76 41 N 15 0,0
21.05.2019 23:00:00 6,0 5,3 50 27 64 35 N 14 0,0
21.05.2019 22:00:00 6,3 5,3 47 26 63 34 N 20 0,0
21.05.2019 21:00:00 6,6 6,3 43 23 63 34 NNW 3,9 0,0
21.05.2019 20:00:00 6,6 5,5 47 25 65 35 N 19 0,0
21.05.2019 19:00:00 7,0 6,7 46 25 58 31 NNW 1,2 1,2
21.05.2019 18:00:00 8,5 6,6 35 19 56 31 N 20 0,0
21.05.2019 17:00:00 8,1 6,2 36 20 51 28 N 20 0,0
21.05.2019 16:00:00 7,6 6,5 31 17 45 24 N 20 0,0
21.05.2019 15:00:00 8,6 5,5 31 17 58 32 N 20 0,0
21.05.2019 14:00:00 7,8 5,6 42 23 58 32 N 20 0,0
21.05.2019 13:00:00 8,7 5,4 34 18 55 30 N 20 0,0
21.05.2019 12:00:00 7,5 6,0 35 19 53 29 N 18 0,0
21.05.2019 11:00:00 6,0 5,1 37 20 71 39 N 11 0,0
21.05.2019 10:00:00 6,1 5,1 55 30 75 41 N 19 0,0
21.05.2019 09:00:00 4,9 4,6 54 29 73 39 N 11 0,0
21.05.2019 08:00:00 4,6 4,2 50 27 73 40 N 11 0,0
21.05.2019 07:00:00 4,1 3,7 57 31 78 42 N 9 0,0
21.05.2019 06:00:00 4,1 3,2 54 29 75 40 NNW 16 0,0
21.05.2019 05:00:00 4,1 3,4 59 32 76 41 N 18 0,0

tt = Température de l'air
td = dewpoint
ff = Vitesse du vent
fx = gusts
dd = Direction du vent
vv = visibility
rr = Quantités de précipitations

stations d'obs. à proximité